La Joya, New Mexico
Current Conditions -  °F | °C
As of 3:15 AM on Thursday 29 Jan 2015 (Local Time) from KE80 Reporting Station
Clear Clear  
Wind Chill: 38°   Ceiling: Unl
Heat Index: 38°   Visibility: 10mi
Dew Point: 30°   Wind: 3mph
Humidity: 74%   Direction: 340°NNW
Pressure: 30.29"   Gusts: NA
Location:  34.35°N, 106.84°W
Report Text: KE80 291015Z AUTO 34003KT 10SM CLR 03/M01 A3029 RMK AO2 T00341009
Loading
Personal Weather Stations






























Interactive Weather Map New forecast layout! Learn more

10-Day Weather Forecast

Advertisements
Track Severe Weather on mobile